createdAt,value
2019-04-14T00:00:14.333Z,102419.66
2019-04-14T00:02:44.708Z,102419.56
2019-04-14T00:05:14.972Z,102421.65
2019-04-14T00:07:43.481Z,102416.87
2019-04-14T00:10:13.821Z,102412.99
2019-04-14T00:12:42.691Z,102417.07
2019-04-14T00:15:25.725Z,102416.00
2019-04-14T00:17:43.514Z,102415.63
2019-04-14T00:20:12.242Z,102411.23
2019-04-14T00:22:40.684Z,102418.64
2019-04-14T00:25:09.251Z,102411.57
2019-04-14T00:27:38.802Z,102416.72
2019-04-14T00:30:08.053Z,102405.39
2019-04-14T00:32:38.119Z,102409.73
2019-04-14T00:35:14.634Z,102404.13
2019-04-14T00:38:02.352Z,102411.27
2019-04-14T00:40:33.005Z,102405.27
2019-04-14T00:43:05.614Z,102402.42
2019-04-14T00:45:43.092Z,102401.23
2019-04-14T00:48:11.729Z,102403.43
2019-04-14T00:50:38.683Z,102402.09
2019-04-14T00:53:07.743Z,102406.52
2019-04-14T00:55:36.161Z,102399.94
2019-04-14T00:58:05.904Z,102400.58
2019-04-14T01:00:34.437Z,102397.00
2019-04-14T01:03:02.851Z,102401.04
2019-04-14T01:05:32.872Z,102401.68
2019-04-14T01:08:01.409Z,102403.45
2019-04-14T01:10:30.084Z,102403.88
2019-04-14T01:12:58.606Z,102402.90
2019-04-14T01:15:27.045Z,102404.73
2019-04-14T01:17:55.441Z,102411.38
2019-04-14T01:20:23.873Z,102407.70
2019-04-14T01:22:53.164Z,102413.83
2019-04-14T01:25:21.697Z,102411.13
2019-04-14T01:27:50.113Z,102416.06
2019-04-14T01:30:19.781Z,102410.77
2019-04-14T01:32:48.387Z,102409.72
2019-04-14T01:35:17.997Z,102402.88
2019-04-14T01:37:46.603Z,102404.66
2019-04-14T01:40:16.289Z,102403.81
2019-04-14T01:42:44.894Z,102409.20
2019-04-14T01:45:15.026Z,102414.47
2019-04-14T01:47:44.508Z,102415.29
2019-04-14T01:50:13.186Z,102414.30
2019-04-14T01:52:43.673Z,102413.88
2019-04-14T01:55:30.906Z,102413.05
2019-04-14T01:58:05.296Z,102406.44
2019-04-14T02:00:51.282Z,102410.27
2019-04-14T02:03:19.930Z,102407.07
2019-04-14T02:05:49.572Z,102416.38
2019-04-14T02:08:18.194Z,102412.34
2019-04-14T02:10:47.821Z,102421.32
2019-04-14T02:13:16.416Z,102415.95
2019-04-14T02:15:44.848Z,102419.97
2019-04-14T02:18:14.291Z,102421.12
2019-04-14T02:20:42.865Z,102418.91
2019-04-14T02:23:12.448Z,102416.02
2019-04-14T02:25:41.104Z,102419.84
2019-04-14T02:28:09.488Z,102416.65
2019-04-14T02:30:44.416Z,102412.16
2019-04-14T02:36:19.972Z,102413.23
2019-04-14T02:41:12.982Z,102412.08
2019-04-14T02:46:02.776Z,102410.23
2019-04-14T02:51:23.565Z,102401.30
2019-04-14T02:56:11.564Z,102402.11
2019-04-14T02:58:48.262Z,102407.88
2019-04-14T03:01:07.018Z,102412.98
2019-04-14T03:06:05.323Z,102400.98
2019-04-14T03:08:47.700Z,102414.70
2019-04-14T03:13:35.149Z,102416.09
2019-04-14T03:19:01.974Z,102415.87
2019-04-14T03:21:29.760Z,102412.28
2019-04-14T03:24:03.491Z,102414.89
2019-04-14T03:26:35.641Z,102411.95
2019-04-14T03:29:08.110Z,102414.74
2019-04-14T03:32:04.852Z,102414.34
2019-04-14T03:34:30.554Z,102414.48
2019-04-14T03:39:17.587Z,102415.70
2019-04-14T03:41:38.659Z,102416.69
2019-04-14T03:44:09.832Z,102418.08
2019-04-14T03:46:43.385Z,102414.26
2019-04-14T03:51:44.489Z,102408.54
2019-04-14T03:54:20.181Z,102412.49
2019-04-14T03:56:37.879Z,102415.11
2019-04-14T03:59:06.489Z,102417.33
2019-04-14T04:01:34.858Z,102417.80
2019-04-14T04:04:03.359Z,102418.22
2019-04-14T04:06:31.758Z,102421.84
2019-04-14T04:09:00.188Z,102420.75
2019-04-14T04:11:28.601Z,102416.92
2019-04-14T04:13:57.102Z,102428.92
2019-04-14T04:16:27.160Z,102426.23
2019-04-14T04:19:04.074Z,102421.70
2019-04-14T04:21:46.427Z,102428.84
2019-04-14T04:24:17.067Z,102423.31
2019-04-14T04:26:49.833Z,102430.92
2019-04-14T04:29:20.172Z,102433.13
2019-04-14T04:31:53.187Z,102427.73
2019-04-14T04:34:27.263Z,102430.20
2019-04-14T04:37:12.792Z,102432.81
2019-04-14T04:39:43.294Z,102434.03
2019-04-14T04:42:11.749Z,102434.89
2019-04-14T04:44:40.193Z,102436.61
2019-04-14T04:47:09.803Z,102437.37
2019-04-14T04:49:38.529Z,102434.55
2019-04-14T04:52:09.885Z,102430.28
2019-04-14T04:54:37.069Z,102432.77
2019-04-14T04:57:06.660Z,102432.64
2019-04-14T04:59:36.590Z,102435.11
2019-04-14T05:02:05.182Z,102436.24
2019-04-14T05:04:35.024Z,102439.21
2019-04-14T05:07:03.723Z,102443.63
2019-04-14T05:09:36.541Z,102439.84
2019-04-14T05:12:17.444Z,102441.92
2019-04-14T05:15:03.577Z,102444.16
2019-04-14T05:17:34.281Z,102443.42
2019-04-14T05:20:03.174Z,102440.50
2019-04-14T05:22:31.760Z,102449.72
2019-04-14T05:25:01.352Z,102442.88
2019-04-14T05:27:29.976Z,102439.47
2019-04-14T05:29:58.379Z,102441.45
2019-04-14T05:32:26.819Z,102447.08
2019-04-14T05:34:56.472Z,102449.92
2019-04-14T05:37:25.026Z,102446.02
2019-04-14T05:39:53.424Z,102438.95
2019-04-14T05:42:25.134Z,102444.35
2019-04-14T05:44:51.988Z,102445.61
2019-04-14T05:47:20.422Z,102449.20
2019-04-14T05:49:52.731Z,102443.81
2019-04-14T05:52:18.984Z,102454.39
2019-04-14T05:54:47.389Z,102454.66
2019-04-14T05:57:15.822Z,102450.87
2019-04-14T05:59:44.221Z,102459.83
2019-04-14T06:02:13.671Z,102459.95
2019-04-14T06:04:42.259Z,102460.48
2019-04-14T06:07:10.700Z,102450.67
2019-04-14T06:09:39.109Z,102463.95
2019-04-14T06:12:07.543Z,102459.30
2019-04-14T06:14:35.945Z,102463.22
2019-04-14T06:17:04.376Z,102461.01
2019-04-14T06:19:39.049Z,102465.22
2019-04-14T06:22:02.944Z,102465.22
2019-04-14T06:24:31.347Z,102466.20
2019-04-14T06:26:59.847Z,102470.38
2019-04-14T06:29:28.254Z,102472.61
2019-04-14T06:32:07.436Z,102474.22
2019-04-14T06:34:37.479Z,102474.72
2019-04-14T06:37:16.322Z,102472.78
2019-04-14T06:39:55.382Z,102477.69
2019-04-14T06:42:23.810Z,102476.47
2019-04-14T06:44:52.218Z,102473.86
2019-04-14T06:47:20.648Z,102475.83
2019-04-14T06:49:49.560Z,102482.97
2019-04-14T06:52:18.058Z,102483.05
2019-04-14T06:54:46.470Z,102482.31
2019-04-14T06:57:14.912Z,102484.10
2019-04-14T06:59:43.314Z,102484.10
2019-04-14T07:02:11.746Z,102480.11
2019-04-14T07:04:40.151Z,102484.16
2019-04-14T07:07:08.584Z,102480.84
2019-04-14T07:09:36.995Z,102482.66
2019-04-14T07:12:05.582Z,102474.58
2019-04-14T07:14:34.125Z,102475.69
2019-04-14T07:17:02.535Z,102475.69
2019-04-14T07:19:30.972Z,102475.27
2019-04-14T07:21:59.435Z,102477.17
2019-04-14T07:24:27.903Z,102477.17
2019-04-14T07:26:56.312Z,102485.40
2019-04-14T07:29:26.380Z,102486.91
2019-04-14T07:32:11.336Z,102486.91
2019-04-14T07:34:44.340Z,102484.72
2019-04-14T07:37:20.299Z,102487.58
2019-04-14T07:39:50.451Z,102485.16
2019-04-14T07:42:23.072Z,102482.85
2019-04-14T07:45:09.312Z,102472.27
2019-04-14T07:47:54.413Z,102472.27
2019-04-14T07:50:33.228Z,102474.92
2019-04-14T07:53:19.690Z,102473.06
2019-04-14T07:55:49.869Z,102473.06
2019-04-14T07:58:19.937Z,102464.73
2019-04-14T08:00:55.478Z,102474.72
2019-04-14T08:03:41.911Z,102478.53
2019-04-14T08:06:10.311Z,102480.20
2019-04-14T08:08:38.748Z,102502.48
2019-04-14T08:11:07.147Z,102502.48
2019-04-14T08:13:35.587Z,102500.02
2019-04-14T08:16:03.997Z,102494.34
2019-04-14T08:18:32.462Z,102494.34
2019-04-14T08:21:00.872Z,102489.17
2019-04-14T08:23:29.275Z,102501.05
2019-04-14T08:25:57.711Z,102501.05
2019-04-14T08:28:26.115Z,102492.56
2019-04-14T08:30:54.539Z,102512.20
2019-04-14T08:33:22.951Z,102511.95
2019-04-14T08:35:51.377Z,102511.95
2019-04-14T08:38:19.786Z,102516.17
2019-04-14T08:40:48.221Z,102517.13
2019-04-14T08:43:18.260Z,102511.76
2019-04-14T08:45:57.238Z,102523.20
2019-04-14T08:48:36.377Z,102516.03
2019-04-14T08:51:06.622Z,102530.03
2019-04-14T08:53:52.865Z,102530.03
2019-04-14T08:56:28.756Z,102531.89
2019-04-14T08:59:01.818Z,102531.47
2019-04-14T09:01:37.891Z,102527.95
2019-04-14T09:04:11.016Z,102527.95
2019-04-14T09:06:41.056Z,102524.68
2019-04-14T09:09:11.104Z,102518.17
2019-04-14T09:11:44.131Z,102518.17
2019-04-14T09:14:12.549Z,102526.03
2019-04-14T09:16:40.975Z,102526.03
2019-04-14T09:19:09.388Z,102527.59
2019-04-14T09:21:37.814Z,102529.36
2019-04-14T09:24:06.294Z,102525.63
2019-04-14T09:26:34.731Z,102524.98
2019-04-14T09:29:03.209Z,102524.98
2019-04-14T09:31:31.639Z,102528.30
2019-04-14T09:34:00.043Z,102528.30
2019-04-14T09:36:28.478Z,102530.94
2019-04-14T09:38:56.889Z,102530.94
2019-04-14T09:41:25.315Z,102530.48
2019-04-14T09:43:53.723Z,102524.95
2019-04-14T09:46:22.160Z,102524.95
2019-04-14T09:48:50.582Z,102533.34
2019-04-14T09:51:19.019Z,102531.78
2019-04-14T09:53:47.417Z,102531.78
2019-04-14T09:56:15.867Z,102527.38
2019-04-14T09:58:44.353Z,102537.25
2019-04-14T10:01:12.791Z,102535.31
2019-04-14T10:03:41.191Z,102535.31
2019-04-14T10:06:09.704Z,102531.17
2019-04-14T10:08:38.182Z,102544.77
2019-04-14T10:11:06.684Z,102542.08
2019-04-14T10:13:35.092Z,102543.09
2019-04-14T10:16:03.505Z,102527.72
2019-04-14T10:18:31.934Z,102539.62
2019-04-14T10:21:00.338Z,102552.46
2019-04-14T10:23:28.772Z,102552.46
2019-04-14T10:25:57.177Z,102540.27
2019-04-14T10:28:25.620Z,102556.02
2019-04-14T10:30:54.028Z,102556.02
2019-04-14T10:33:22.457Z,102549.09
2019-04-14T10:35:50.884Z,102544.36
2019-04-14T10:38:19.316Z,102544.36
2019-04-14T10:40:47.720Z,102549.19
2019-04-14T10:43:16.154Z,102549.19
2019-04-14T10:45:44.563Z,102539.08
2019-04-14T10:48:12.994Z,102546.30
2019-04-14T10:50:41.397Z,102534.27
2019-04-14T10:53:09.829Z,102534.27
2019-04-14T10:55:38.231Z,102554.30
2019-04-14T10:58:06.732Z,102541.29
2019-04-14T11:00:35.132Z,102552.26
2019-04-14T11:03:03.627Z,102550.19
2019-04-14T11:05:33.661Z,102550.19
2019-04-14T11:08:02.099Z,102542.02
2019-04-14T11:10:30.511Z,102540.44
2019-04-14T11:12:59.023Z,102553.02
2019-04-14T11:15:27.430Z,102553.02
2019-04-14T11:17:55.938Z,102549.08
2019-04-14T11:20:24.406Z,102543.70
2019-04-14T11:23:02.765Z,102544.74
2019-04-14T11:25:23.181Z,102544.74
2019-04-14T11:27:51.579Z,102544.23
2019-04-14T11:30:21.651Z,102539.08
2019-04-14T11:32:57.638Z,102538.98
2019-04-14T11:35:27.721Z,102543.65
2019-04-14T11:38:12.628Z,102543.65
2019-04-14T11:40:45.639Z,102546.19
2019-04-14T11:43:14.044Z,102546.19
2019-04-14T11:45:42.545Z,102540.27
2019-04-14T11:48:10.956Z,102534.56
2019-04-14T11:50:39.397Z,102541.61
2019-04-14T11:53:07.874Z,102535.98
2019-04-14T11:55:36.310Z,102530.19
2019-04-14T11:58:04.776Z,102537.77
2019-04-14T12:00:37.664Z,102536.84
2019-04-14T12:03:22.836Z,102539.05
2019-04-14T12:06:09.167Z,102546.97
2019-04-14T12:08:54.545Z,102539.17
2019-04-14T12:11:22.951Z,102545.89
2019-04-14T12:13:51.431Z,102548.21
2019-04-14T12:16:19.841Z,102549.92
2019-04-14T12:18:48.269Z,102552.05
2019-04-14T12:21:16.699Z,102552.35
2019-04-14T12:23:45.096Z,102549.02
2019-04-14T12:26:13.535Z,102557.18
2019-04-14T12:28:42.697Z,102549.80
2019-04-14T12:31:11.421Z,102548.50
2019-04-14T12:33:39.821Z,102553.83
2019-04-14T12:36:11.438Z,102545.14
2019-04-14T12:38:39.831Z,102546.91
2019-04-14T12:41:10.544Z,102545.16
2019-04-14T12:43:43.355Z,102546.73
2019-04-14T12:46:16.106Z,102548.27
2019-04-14T12:48:54.766Z,102552.36
2019-04-14T12:51:24.843Z,102551.27
2019-04-14T12:53:53.247Z,102551.84
2019-04-14T12:56:23.318Z,102557.80
2019-04-14T12:58:56.299Z,102553.24
2019-04-14T13:01:26.371Z,102552.19
2019-04-14T13:03:54.768Z,102546.91
2019-04-14T13:06:23.196Z,102546.97
2019-04-14T13:08:51.598Z,102541.11
2019-04-14T13:11:20.100Z,102537.81
2019-04-14T13:13:48.502Z,102540.59
2019-04-14T13:16:16.939Z,102537.39
2019-04-14T13:18:45.337Z,102544.40
2019-04-14T13:21:13.767Z,102539.13
2019-04-14T13:23:42.166Z,102530.56
2019-04-14T13:26:10.596Z,102540.89
2019-04-14T13:28:39.002Z,102526.50
2019-04-14T13:31:07.435Z,102545.67
2019-04-14T13:33:35.842Z,102542.99
2019-04-14T13:36:04.444Z,102540.02
2019-04-14T13:38:32.844Z,102534.71
2019-04-14T13:41:01.274Z,102533.93
2019-04-14T13:43:29.683Z,102533.16
2019-04-14T13:45:59.889Z,102534.72
2019-04-14T13:48:28.297Z,102537.06
2019-04-14T13:50:56.721Z,102523.81
2019-04-14T13:53:25.211Z,102527.27
2019-04-14T13:55:53.639Z,102529.27
2019-04-14T13:58:22.077Z,102523.27
2019-04-14T14:00:50.479Z,102524.46
2019-04-14T14:03:18.921Z,102521.52
2019-04-14T14:05:47.320Z,102514.77
2019-04-14T14:08:15.756Z,102527.99
2019-04-14T14:10:44.156Z,102523.22
2019-04-14T14:13:23.397Z,102516.06
2019-04-14T14:16:05.419Z,102520.75
2019-04-14T14:18:35.481Z,102516.31
2019-04-14T14:21:05.535Z,102510.36
2019-04-14T14:23:38.402Z,102515.94
2019-04-14T14:26:08.427Z,102505.42
2019-04-14T14:28:38.658Z,102509.20
2019-04-14T14:31:06.999Z,102508.70
2019-04-14T14:33:35.503Z,102507.28
2019-04-14T14:36:03.904Z,102510.21
2019-04-14T14:38:32.343Z,102508.98
2019-04-14T14:41:02.386Z,102503.45
2019-04-14T14:43:30.820Z,102496.56
2019-04-14T14:46:00.861Z,102502.52
2019-04-14T14:48:33.845Z,102501.33
2019-04-14T14:51:03.889Z,102502.36
2019-04-14T14:53:32.324Z,102494.48
2019-04-14T14:56:00.726Z,102502.30
2019-04-14T14:58:29.173Z,102497.05
2019-04-14T15:00:57.566Z,102496.92
2019-04-14T15:03:25.998Z,102498.53
2019-04-14T15:05:54.406Z,102496.82
2019-04-14T15:08:22.838Z,102500.68
2019-04-14T15:10:51.238Z,102494.98
2019-04-14T15:13:19.682Z,102496.99
2019-04-14T15:15:48.156Z,102501.94
2019-04-14T15:18:16.594Z,102499.75
2019-04-14T15:20:44.998Z,102499.52
2019-04-14T15:23:24.285Z,102497.47
2019-04-14T15:25:43.563Z,102501.05
2019-04-14T15:28:12.007Z,102501.88
2019-04-14T15:30:40.398Z,102496.48
2019-04-14T15:33:08.828Z,102501.52
2019-04-14T15:35:37.231Z,102498.89
2019-04-14T15:38:05.735Z,102498.52
2019-04-14T15:40:34.137Z,102494.89
2019-04-14T15:43:02.628Z,102501.33
2019-04-14T15:45:31.025Z,102504.70
2019-04-14T15:47:59.423Z,102512.88
2019-04-14T15:50:27.859Z,102501.20
2019-04-14T15:52:56.259Z,102507.89
2019-04-14T15:55:24.691Z,102506.02
2019-04-14T15:57:57.443Z,102511.00
2019-04-14T16:00:27.583Z,102509.77
2019-04-14T16:03:13.638Z,102503.72
2019-04-14T16:05:52.245Z,102507.42
2019-04-14T16:08:27.984Z,102506.05
2019-04-14T16:11:00.487Z,102509.08
2019-04-14T16:13:33.467Z,102510.61
2019-04-14T16:16:12.447Z,102516.92
2019-04-14T16:19:00.577Z,102519.48
2019-04-14T16:21:29.005Z,102524.08
2019-04-14T16:23:57.406Z,102512.16
2019-04-14T16:26:30.052Z,102522.75
2019-04-14T16:29:15.223Z,102512.36
2019-04-14T16:31:45.294Z,102514.53
2019-04-14T16:34:24.575Z,102518.80
2019-04-14T16:36:54.187Z,102518.23
2019-04-14T16:39:22.587Z,102522.63
2019-04-14T16:41:51.090Z,102524.63
2019-04-14T16:44:19.502Z,102521.34
2019-04-14T16:46:48.202Z,102523.86
2019-04-14T16:49:16.605Z,102524.88
2019-04-14T16:51:55.167Z,102529.13
2019-04-14T16:54:31.126Z,102524.84
2019-04-14T16:57:17.091Z,102535.05
2019-04-14T16:59:45.489Z,102537.05
2019-04-14T17:02:14.070Z,102537.34
2019-04-14T17:04:42.480Z,102540.92
2019-04-14T17:07:10.907Z,102541.38
2019-04-14T17:09:39.310Z,102544.40
2019-04-14T17:12:07.808Z,102553.38
2019-04-14T17:14:37.851Z,102549.80
2019-04-14T17:17:24.079Z,102551.50
2019-04-14T17:19:57.038Z,102560.64
2019-04-14T17:22:31.897Z,102565.69
2019-04-14T17:25:18.462Z,102567.30
2019-04-14T17:27:50.957Z,102560.34
2019-04-14T17:30:21.066Z,102572.08
2019-04-14T17:32:54.030Z,102577.26
2019-04-14T17:35:32.831Z,102574.98
2019-04-14T17:38:06.030Z,102582.23
2019-04-14T17:40:41.973Z,102582.59
2019-04-14T17:43:28.186Z,102580.82
2019-04-14T17:46:16.022Z,102586.94
2019-04-14T17:48:46.092Z,102597.73
2019-04-14T17:51:19.073Z,102598.39
2019-04-14T17:54:05.033Z,102602.09
2019-04-14T17:56:37.650Z,102607.95
2019-04-14T17:59:13.663Z,102611.52
2019-04-14T18:01:52.749Z,102619.13
2019-04-14T18:04:25.556Z,102616.21
2019-04-14T18:07:11.853Z,102620.65
2019-04-14T18:09:56.943Z,102625.48
2019-04-14T18:12:32.609Z,102631.41
2019-04-14T18:15:05.722Z,102630.98
2019-04-14T18:17:35.823Z,102630.07
2019-04-14T18:20:08.331Z,102636.08
2019-04-14T18:22:36.740Z,102633.63
2019-04-14T18:25:07.564Z,102637.01
2019-04-14T18:27:37.632Z,102632.56
2019-04-14T18:30:17.350Z,102641.36
2019-04-14T18:33:03.551Z,102648.32
2019-04-14T18:35:33.669Z,102644.94
2019-04-14T18:38:12.574Z,102650.69
2019-04-14T18:40:51.291Z,102652.53
2019-04-14T18:43:21.336Z,102648.83
2019-04-14T18:46:07.425Z,102652.73
2019-04-14T18:48:37.472Z,102649.66
2019-04-14T18:51:07.551Z,102647.37
2019-04-14T18:53:37.610Z,102653.61
2019-04-14T18:56:16.854Z,102656.76
2019-04-14T18:58:49.960Z,102646.36
2019-04-14T19:01:22.726Z,102656.45
2019-04-14T19:03:51.139Z,102654.74
2019-04-14T19:06:19.575Z,102650.51
2019-04-14T19:08:47.990Z,102652.22
2019-04-14T19:11:18.075Z,102657.89
2019-04-14T19:13:51.047Z,102665.42
2019-04-14T19:16:39.268Z,102662.47
2019-04-14T19:19:04.148Z,102662.47
2019-04-14T19:21:32.826Z,102667.41
2019-04-14T19:24:01.227Z,102667.06
2019-04-14T19:26:29.723Z,102662.17
2019-04-14T19:28:58.138Z,102662.17
2019-04-14T19:31:26.564Z,102677.28
2019-04-14T19:33:54.986Z,102670.25
2019-04-14T19:36:23.380Z,102675.54
2019-04-14T19:38:51.814Z,102668.54
2019-04-14T19:41:20.228Z,102675.84
2019-04-14T19:43:48.657Z,102675.34
2019-04-14T19:46:17.131Z,102676.31
2019-04-14T19:48:45.637Z,102679.34
2019-04-14T19:51:14.042Z,102681.09
2019-04-14T19:53:42.478Z,102681.83
2019-04-14T19:56:10.879Z,102685.25
2019-04-14T19:58:39.379Z,102697.33
2019-04-14T20:01:07.864Z,102699.61
2019-04-14T20:03:36.296Z,102689.36
2019-04-14T20:06:05.036Z,102699.34
2019-04-14T20:08:33.463Z,102702.92
2019-04-14T20:11:01.937Z,102706.18
2019-04-14T20:13:32.000Z,102702.09
2019-04-14T20:16:17.283Z,102700.73
2019-04-14T20:19:10.262Z,102702.75
2019-04-14T20:21:51.852Z,102712.74
2019-04-14T20:24:21.932Z,102698.90
2019-04-14T20:26:51.972Z,102711.13
2019-04-14T20:29:24.570Z,102714.44
2019-04-14T20:31:54.613Z,102704.52
2019-04-14T20:34:23.116Z,102713.20
2019-04-14T20:36:51.538Z,102715.15
2019-04-14T20:39:19.971Z,102715.91
2019-04-14T20:41:48.379Z,102723.21
2019-04-14T20:44:16.950Z,102728.55
2019-04-14T20:46:45.360Z,102727.22
2019-04-14T20:49:13.773Z,102727.22
2019-04-14T20:51:42.285Z,102731.84
2019-04-14T20:54:10.796Z,102720.00
2019-04-14T20:56:39.197Z,102726.08
2019-04-14T20:59:07.673Z,102725.48
2019-04-14T21:01:37.783Z,102727.75
2019-04-14T21:04:10.619Z,102740.32
2019-04-14T21:06:49.787Z,102747.30
2019-04-14T21:09:34.865Z,102747.30
2019-04-14T21:12:17.057Z,102747.97
2019-04-14T21:14:47.121Z,102747.01
2019-04-14T21:17:28.931Z,102758.47
2019-04-14T21:19:59.010Z,102754.01
2019-04-14T21:22:38.084Z,102761.55
2019-04-14T21:25:25.223Z,102759.34
2019-04-14T21:28:03.923Z,102759.34
2019-04-14T21:30:43.014Z,102749.64
2019-04-14T21:33:22.210Z,102755.67
2019-04-14T21:35:55.042Z,102768.24
2019-04-14T21:38:40.071Z,102769.98
2019-04-14T21:41:12.639Z,102766.88
2019-04-14T21:43:41.070Z,102766.88
2019-04-14T21:46:09.507Z,102767.08
2019-04-14T21:48:37.987Z,102777.89
2019-04-14T21:51:06.422Z,102777.89
2019-04-14T21:53:34.829Z,102771.75
2019-04-14T21:56:13.368Z,102771.75
2019-04-14T21:58:35.029Z,102771.40
2019-04-14T22:01:36.347Z,102759.84
2019-04-14T22:04:22.659Z,102772.27
2019-04-14T22:06:52.738Z,102770.16
2019-04-14T22:09:25.429Z,102769.16
2019-04-14T22:11:53.858Z,102770.80
2019-04-14T22:14:22.256Z,102770.80
2019-04-14T22:16:50.696Z,102761.59
2019-04-14T22:19:19.477Z,102761.59
2019-04-14T22:21:47.923Z,102775.48
2019-04-14T22:24:16.576Z,102771.31
2019-04-14T22:26:45.066Z,102771.31
2019-04-14T22:29:13.466Z,102777.48
2019-04-14T22:31:41.900Z,102777.48
2019-04-14T22:34:10.306Z,102766.42
2019-04-14T22:36:38.782Z,102779.23
2019-04-14T22:39:09.032Z,102771.09
2019-04-14T22:41:37.439Z,102781.70
2019-04-14T22:44:05.880Z,102775.91
2019-04-14T22:46:34.290Z,102778.27
2019-04-14T22:49:02.719Z,102775.91
2019-04-14T22:51:31.120Z,102777.91
2019-04-14T22:53:59.551Z,102777.91
2019-04-14T22:56:38.613Z,102782.20
2019-04-14T22:58:58.108Z,102768.67
2019-04-14T23:01:28.154Z,102783.34
2019-04-14T23:04:16.295Z,102785.45
2019-04-14T23:07:04.414Z,102785.45
2019-04-14T23:09:43.548Z,102787.66
2019-04-14T23:12:29.635Z,102778.55
2019-04-14T23:15:02.552Z,102778.55
2019-04-14T23:17:32.587Z,102769.30
2019-04-14T23:20:14.341Z,102769.30
2019-04-14T23:22:47.583Z,102789.64
2019-04-14T23:25:16.088Z,102789.64
2019-04-14T23:27:44.495Z,102792.48
2019-04-14T23:30:13.068Z,102797.91
2019-04-14T23:32:41.465Z,102798.54
2019-04-14T23:35:09.984Z,102798.54
2019-04-14T23:37:38.383Z,102797.80
2019-04-14T23:40:07.973Z,102797.44
2019-04-14T23:42:36.377Z,102799.91
2019-04-14T23:45:07.017Z,102802.86
2019-04-14T23:47:35.431Z,102803.11
2019-04-14T23:50:07.991Z,102813.44
2019-04-14T23:52:36.405Z,102811.48
2019-04-14T23:55:06.572Z,102809.25
2019-04-14T23:57:35.139Z,102812.48
